sensor_id;sensor_type;location;lat;lon;timestamp;temperature;humidity
20744;DHT22;56303;52.160;-0.428;2023-07-13T00:01:55;17.30;99.90
20744;DHT22;56303;52.160;-0.428;2023-07-13T00:04:23;17.10;99.90
20744;DHT22;56303;52.160;-0.428;2023-07-13T00:06:55;17.20;99.90
20744;DHT22;56303;52.160;-0.428;2023-07-13T00:09:22;17.30;99.90
20744;DHT22;56303;52.160;-0.428;2023-07-13T00:11:55;17.20;99.90
20744;DHT22;56303;52.160;-0.428;2023-07-13T00:14:23;17.20;99.90
20744;DHT22;56303;52.160;-0.428;2023-07-13T00:16:51;17.20;99.90
20744;DHT22;56303;52.160;-0.428;2023-07-13T00:19:18;17.30;99.90
20744;DHT22;56303;52.160;-0.428;2023-07-13T00:21:45;17.20;99.90
20744;DHT22;56303;52.160;-0.428;2023-07-13T00:24:14;17.20;99.90
20744;DHT22;56303;52.160;-0.428;2023-07-13T00:26:42;17.20;99.90
20744;DHT22;56303;52.160;-0.428;2023-07-13T00:29:13;17.20;99.90
20744;DHT22;56303;52.160;-0.428;2023-07-13T00:31:40;17.20;99.90
20744;DHT22;56303;52.160;-0.428;2023-07-13T00:34:07;17.10;99.90
20744;DHT22;56303;52.160;-0.428;2023-07-13T00:36:34;17.00;99.90
20744;DHT22;56303;52.160;-0.428;2023-07-13T00:39:02;16.90;99.90
20744;DHT22;56303;52.160;-0.428;2023-07-13T00:41:31;16.90;99.90
20744;DHT22;56303;52.160;-0.428;2023-07-13T00:43:58;16.90;99.90
20744;DHT22;56303;52.160;-0.428;2023-07-13T00:46:32;16.80;99.90
20744;DHT22;56303;52.160;-0.428;2023-07-13T00:49:02;16.80;99.90
20744;DHT22;56303;52.160;-0.428;2023-07-13T00:51:37;16.80;99.90
20744;DHT22;56303;52.160;-0.428;2023-07-13T00:54:08;16.80;99.90
20744;DHT22;56303;52.160;-0.428;2023-07-13T00:56:37;16.80;99.90
20744;DHT22;56303;52.160;-0.428;2023-07-13T00:59:06;16.80;99.90
20744;DHT22;56303;52.160;-0.428;2023-07-13T01:01:33;17.00;99.90
20744;DHT22;56303;52.160;-0.428;2023-07-13T01:04:00;16.90;99.90
20744;DHT22;56303;52.160;-0.428;2023-07-13T01:06:27;16.90;99.90
20744;DHT22;56303;52.160;-0.428;2023-07-13T01:08:56;16.90;99.90
20744;DHT22;56303;52.160;-0.428;2023-07-13T01:11:24;16.80;99.90
20744;DHT22;56303;52.160;-0.428;2023-07-13T01:13:51;16.70;99.90
20744;DHT22;56303;52.160;-0.428;2023-07-13T01:16:27;16.70;99.90
20744;DHT22;56303;52.160;-0.428;2023-07-13T01:18:55;16.60;99.90
20744;DHT22;56303;52.160;-0.428;2023-07-13T01:21:27;16.60;99.90
20744;DHT22;56303;52.160;-0.428;2023-07-13T01:23:54;16.60;99.90
20744;DHT22;56303;52.160;-0.428;2023-07-13T01:26:22;16.60;99.90
20744;DHT22;56303;52.160;-0.428;2023-07-13T01:28:49;16.50;99.90
20744;DHT22;56303;52.160;-0.428;2023-07-13T01:31:16;16.60;99.90
20744;DHT22;56303;52.160;-0.428;2023-07-13T01:33:43;16.70;99.90
20744;DHT22;56303;52.160;-0.428;2023-07-13T01:36:11;16.50;99.90
20744;DHT22;56303;52.160;-0.428;2023-07-13T01:38:38;16.70;99.90
20744;DHT22;56303;52.160;-0.428;2023-07-13T01:41:07;16.70;99.90
20744;DHT22;56303;52.160;-0.428;2023-07-13T01:43:34;16.80;99.90
20744;DHT22;56303;52.160;-0.428;2023-07-13T01:46:01;16.70;99.90
20744;DHT22;56303;52.160;-0.428;2023-07-13T01:48:47;16.80;99.90
20744;DHT22;56303;52.160;-0.428;2023-07-13T01:51:15;16.60;99.90
20744;DHT22;56303;52.160;-0.428;2023-07-13T01:53:42;16.60;99.90
20744;DHT22;56303;52.160;-0.428;2023-07-13T01:56:09;16.60;99.90
20744;DHT22;56303;52.160;-0.428;2023-07-13T01:58:37;16.60;99.90
20744;DHT22;56303;52.160;-0.428;2023-07-13T02:01:03;16.50;99.90
20744;DHT22;56303;52.160;-0.428;2023-07-13T02:03:30;16.60;99.90
20744;DHT22;56303;52.160;-0.428;2023-07-13T02:05:57;16.50;99.90
20744;DHT22;56303;52.160;-0.428;2023-07-13T02:08:24;16.50;99.90
20744;DHT22;56303;52.160;-0.428;2023-07-13T02:10:51;16.40;99.90
20744;DHT22;56303;52.160;-0.428;2023-07-13T02:13:18;16.30;99.90
20744;DHT22;56303;52.160;-0.428;2023-07-13T02:15:45;16.40;99.90
20744;DHT22;56303;52.160;-0.428;2023-07-13T02:18:12;16.50;99.90
20744;DHT22;56303;52.160;-0.428;2023-07-13T02:20:43;16.40;99.90
20744;DHT22;56303;52.160;-0.428;2023-07-13T02:23:11;16.40;99.90
20744;DHT22;56303;52.160;-0.428;2023-07-13T02:25:38;16.40;99.90
20744;DHT22;56303;52.160;-0.428;2023-07-13T02:28:05;16.40;99.90
20744;DHT22;56303;52.160;-0.428;2023-07-13T02:30:32;16.50;99.90
20744;DHT22;56303;52.160;-0.428;2023-07-13T02:32:58;16.50;99.90
20744;DHT22;56303;52.160;-0.428;2023-07-13T02:35:25;16.30;99.90
20744;DHT22;56303;52.160;-0.428;2023-07-13T02:37:52;16.30;99.90
20744;DHT22;56303;52.160;-0.428;2023-07-13T02:40:19;16.30;99.90
20744;DHT22;56303;52.160;-0.428;2023-07-13T02:42:46;16.20;99.90
20744;DHT22;56303;52.160;-0.428;2023-07-13T02:45:13;16.20;99.90
20744;DHT22;56303;52.160;-0.428;2023-07-13T02:47:42;16.30;99.90
20744;DHT22;56303;52.160;-0.428;2023-07-13T02:50:09;16.40;99.90
20744;DHT22;56303;52.160;-0.428;2023-07-13T02:52:36;16.50;99.90
20744;DHT22;56303;52.160;-0.428;2023-07-13T02:55:03;16.40;99.90
20744;DHT22;56303;52.160;-0.428;2023-07-13T02:57:30;16.50;99.90
20744;DHT22;56303;52.160;-0.428;2023-07-13T03:00:00;16.50;99.90
20744;DHT22;56303;52.160;-0.428;2023-07-13T03:02:27;16.40;99.90
20744;DHT22;56303;52.160;-0.428;2023-07-13T03:04:55;16.30;99.90
20744;DHT22;56303;52.160;-0.428;2023-07-13T03:07:22;16.30;99.90
20744;DHT22;56303;52.160;-0.428;2023-07-13T03:09:54;16.30;99.90
20744;DHT22;56303;52.160;-0.428;2023-07-13T03:12:22;16.30;99.90
20744;DHT22;56303;52.160;-0.428;2023-07-13T03:14:49;16.40;99.90
20744;DHT22;56303;52.160;-0.428;2023-07-13T03:17:16;16.40;99.90
20744;DHT22;56303;52.160;-0.428;2023-07-13T03:19:43;16.30;99.90
20744;DHT22;56303;52.160;-0.428;2023-07-13T03:22:10;16.30;99.90
20744;DHT22;56303;52.160;-0.428;2023-07-13T03:24:37;16.30;99.90
20744;DHT22;56303;52.160;-0.428;2023-07-13T03:27:06;16.40;99.90
20744;DHT22;56303;52.160;-0.428;2023-07-13T03:29:33;16.30;99.90
20744;DHT22;56303;52.160;-0.428;2023-07-13T03:32:00;16.20;99.90
20744;DHT22;56303;52.160;-0.428;2023-07-13T03:34:27;16.20;99.90
20744;DHT22;56303;52.160;-0.428;2023-07-13T03:36:54;16.30;99.90
20744;DHT22;56303;52.160;-0.428;2023-07-13T03:39:22;16.20;99.90
20744;DHT22;56303;52.160;-0.428;2023-07-13T03:41:49;16.20;99.90
20744;DHT22;56303;52.160;-0.428;2023-07-13T03:44:17;16.30;99.90
20744;DHT22;56303;52.160;-0.428;2023-07-13T03:46:44;16.30;99.90
20744;DHT22;56303;52.160;-0.428;2023-07-13T03:49:12;16.30;99.90
20744;DHT22;56303;52.160;-0.428;2023-07-13T03:51:39;16.30;99.90
20744;DHT22;56303;52.160;-0.428;2023-07-13T03:54:06;16.20;99.90
20744;DHT22;56303;52.160;-0.428;2023-07-13T03:56:33;16.30;99.90
20744;DHT22;56303;52.160;-0.428;2023-07-13T03:59:00;16.30;99.90
20744;DHT22;56303;52.160;-0.428;2023-07-13T04:01:27;16.20;99.90
20744;DHT22;56303;52.160;-0.428;2023-07-13T04:03:54;16.10;99.90
20744;DHT22;56303;52.160;-0.428;2023-07-13T04:06:26;16.10;99.90
20744;DHT22;56303;52.160;-0.428;2023-07-13T04:08:55;15.90;99.90
20744;DHT22;56303;52.160;-0.428;2023-07-13T04:11:23;16.30;99.90
20744;DHT22;56303;52.160;-0.428;2023-07-13T04:13:51;16.20;99.90
20744;DHT22;56303;52.160;-0.428;2023-07-13T04:16:18;16.30;99.90
20744;DHT22;56303;52.160;-0.428;2023-07-13T04:18:47;16.00;99.90
20744;DHT22;56303;52.160;-0.428;2023-07-13T04:21:15;16.00;99.90
20744;DHT22;56303;52.160;-0.428;2023-07-13T04:23:42;16.00;99.90
20744;DHT22;56303;52.160;-0.428;2023-07-13T04:26:09;16.00;99.90
20744;DHT22;56303;52.160;-0.428;2023-07-13T04:28:36;16.10;99.90
20744;DHT22;56303;52.160;-0.428;2023-07-13T04:31:03;16.20;99.90
20744;DHT22;56303;52.160;-0.428;2023-07-13T04:33:30;16.30;99.90
20744;DHT22;56303;52.160;-0.428;2023-07-13T04:35:57;16.30;99.90
20744;DHT22;56303;52.160;-0.428;2023-07-13T04:38:30;16.20;99.90
20744;DHT22;56303;52.160;-0.428;2023-07-13T04:41:00;16.10;99.90
20744;DHT22;56303;52.160;-0.428;2023-07-13T04:43:28;16.10;99.90
20744;DHT22;56303;52.160;-0.428;2023-07-13T04:45:56;16.10;99.90
20744;DHT22;56303;52.160;-0.428;2023-07-13T04:48:24;16.10;99.90
20744;DHT22;56303;52.160;-0.428;2023-07-13T04:50:55;16.10;99.90
20744;DHT22;56303;52.160;-0.428;2023-07-13T04:53:22;16.10;99.90
20744;DHT22;56303;52.160;-0.428;2023-07-13T04:55:50;16.30;99.90
20744;DHT22;56303;52.160;-0.428;2023-07-13T04:58:17;16.20;99.90
20744;DHT22;56303;52.160;-0.428;2023-07-13T05:00:44;16.30;99.90
20744;DHT22;56303;52.160;-0.428;2023-07-13T05:03:11;16.30;99.90
20744;DHT22;56303;52.160;-0.428;2023-07-13T05:05:38;16.40;99.90
20744;DHT22;56303;52.160;-0.428;2023-07-13T05:08:05;16.40;99.90
20744;DHT22;56303;52.160;-0.428;2023-07-13T05:10:31;16.40;99.90
20744;DHT22;56303;52.160;-0.428;2023-07-13T05:12:58;16.50;99.90
20744;DHT22;56303;52.160;-0.428;2023-07-13T05:15:26;16.60;99.90
20744;DHT22;56303;52.160;-0.428;2023-07-13T05:17:53;16.50;99.90
20744;DHT22;56303;52.160;-0.428;2023-07-13T05:20:20;16.50;99.90
20744;DHT22;56303;52.160;-0.428;2023-07-13T05:22:47;16.50;99.90
20744;DHT22;56303;52.160;-0.428;2023-07-13T05:25:14;16.40;99.90
20744;DHT22;56303;52.160;-0.428;2023-07-13T05:27:41;16.50;99.90
20744;DHT22;56303;52.160;-0.428;2023-07-13T05:30:08;16.60;99.90
20744;DHT22;56303;52.160;-0.428;2023-07-13T05:32:37;16.60;99.90
20744;DHT22;56303;52.160;-0.428;2023-07-13T05:35:05;16.60;99.90
20744;DHT22;56303;52.160;-0.428;2023-07-13T05:37:33;16.60;99.90
20744;DHT22;56303;52.160;-0.428;2023-07-13T05:40:00;16.50;99.90
20744;DHT22;56303;52.160;-0.428;2023-07-13T05:42:27;16.60;99.90
20744;DHT22;56303;52.160;-0.428;2023-07-13T05:44:54;16.60;99.90
20744;DHT22;56303;52.160;-0.428;2023-07-13T05:47:21;16.60;99.90
20744;DHT22;56303;52.160;-0.428;2023-07-13T05:49:47;16.70;99.90
20744;DHT22;56303;52.160;-0.428;2023-07-13T05:52:14;16.70;99.90
20744;DHT22;56303;52.160;-0.428;2023-07-13T05:54:41;16.90;99.90
20744;DHT22;56303;52.160;-0.428;2023-07-13T05:57:08;17.00;99.90
20744;DHT22;56303;52.160;-0.428;2023-07-13T05:59:35;17.00;99.90
20744;DHT22;56303;52.160;-0.428;2023-07-13T06:02:02;17.00;99.90
20744;DHT22;56303;52.160;-0.428;2023-07-13T06:04:29;17.20;99.90
20744;DHT22;56303;52.160;-0.428;2023-07-13T06:06:56;17.10;99.90
20744;DHT22;56303;52.160;-0.428;2023-07-13T06:09:23;17.20;99.90
20744;DHT22;56303;52.160;-0.428;2023-07-13T06:11:50;17.20;99.90
20744;DHT22;56303;52.160;-0.428;2023-07-13T06:14:17;17.20;99.90
20744;DHT22;56303;52.160;-0.428;2023-07-13T06:16:44;17.30;99.90
20744;DHT22;56303;52.160;-0.428;2023-07-13T06:19:11;17.30;99.90
20744;DHT22;56303;52.160;-0.428;2023-07-13T06:21:38;17.40;99.90
20744;DHT22;56303;52.160;-0.428;2023-07-13T06:24:15;17.30;99.90
20744;DHT22;56303;52.160;-0.428;2023-07-13T06:26:42;17.40;99.90
20744;DHT22;56303;52.160;-0.428;2023-07-13T06:29:09;17.30;99.90
20744;DHT22;56303;52.160;-0.428;2023-07-13T06:31:35;17.30;99.90
20744;DHT22;56303;52.160;-0.428;2023-07-13T06:34:03;17.00;99.90
20744;DHT22;56303;52.160;-0.428;2023-07-13T06:36:29;17.20;99.90
20744;DHT22;56303;52.160;-0.428;2023-07-13T06:38:56;17.30;99.90
20744;DHT22;56303;52.160;-0.428;2023-07-13T06:41:23;17.40;99.90
20744;DHT22;56303;52.160;-0.428;2023-07-13T06:43:52;17.50;99.90
20744;DHT22;56303;52.160;-0.428;2023-07-13T06:46:22;17.40;99.90
20744;DHT22;56303;52.160;-0.428;2023-07-13T06:48:49;17.50;99.90
20744;DHT22;56303;52.160;-0.428;2023-07-13T06:51:16;17.60;99.90
20744;DHT22;56303;52.160;-0.428;2023-07-13T06:53:46;17.50;99.90
20744;DHT22;56303;52.160;-0.428;2023-07-13T06:56:19;17.70;99.90
20744;DHT22;56303;52.160;-0.428;2023-07-13T06:58:46;17.70;99.90
20744;DHT22;56303;52.160;-0.428;2023-07-13T07:01:13;17.50;99.90
20744;DHT22;56303;52.160;-0.428;2023-07-13T07:03:40;17.50;99.90
20744;DHT22;56303;52.160;-0.428;2023-07-13T07:06:20;17.60;99.90
20744;DHT22;56303;52.160;-0.428;2023-07-13T07:08:48;17.70;99.90
20744;DHT22;56303;52.160;-0.428;2023-07-13T07:11:20;17.70;99.90
20744;DHT22;56303;52.160;-0.428;2023-07-13T07:13:49;17.90;99.90
20744;DHT22;56303;52.160;-0.428;2023-07-13T07:16:17;17.70;99.90
20744;DHT22;56303;52.160;-0.428;2023-07-13T07:18:45;17.80;99.90
20744;DHT22;56303;52.160;-0.428;2023-07-13T07:21:13;17.80;99.90
20744;DHT22;56303;52.160;-0.428;2023-07-13T07:23:40;18.00;99.90
20744;DHT22;56303;52.160;-0.428;2023-07-13T07:26:07;18.00;99.90
20744;DHT22;56303;52.160;-0.428;2023-07-13T07:28:35;18.00;99.90
20744;DHT22;56303;52.160;-0.428;2023-07-13T07:31:05;18.20;99.90
20744;DHT22;56303;52.160;-0.428;2023-07-13T07:33:35;18.10;99.90
20744;DHT22;56303;52.160;-0.428;2023-07-13T07:36:02;18.30;99.90
20744;DHT22;56303;52.160;-0.428;2023-07-13T07:38:32;18.50;99.90
20744;DHT22;56303;52.160;-0.428;2023-07-13T07:41:03;18.40;99.90
20744;DHT22;56303;52.160;-0.428;2023-07-13T07:43:33;18.60;99.90
20744;DHT22;56303;52.160;-0.428;2023-07-13T07:46:00;18.70;99.90
20744;DHT22;56303;52.160;-0.428;2023-07-13T07:48:33;18.90;99.90
20744;DHT22;56303;52.160;-0.428;2023-07-13T07:51:00;18.70;99.90
20744;DHT22;56303;52.160;-0.428;2023-07-13T07:53:27;19.00;99.90
20744;DHT22;56303;52.160;-0.428;2023-07-13T07:55:54;18.80;99.90
20744;DHT22;56303;52.160;-0.428;2023-07-13T07:58:41;19.30;99.90
20744;DHT22;56303;52.160;-0.428;2023-07-13T08:01:10;19.20;99.90
20744;DHT22;56303;52.160;-0.428;2023-07-13T08:03:40;19.00;99.90
20744;DHT22;56303;52.160;-0.428;2023-07-13T08:06:10;19.20;99.90
20744;DHT22;56303;52.160;-0.428;2023-07-13T08:08:40;19.30;99.90
20744;DHT22;56303;52.160;-0.428;2023-07-13T08:11:08;19.20;99.90
20744;DHT22;56303;52.160;-0.428;2023-07-13T08:13:38;19.10;99.90
20744;DHT22;56303;52.160;-0.428;2023-07-13T08:16:07;19.30;99.90
20744;DHT22;56303;52.160;-0.428;2023-07-13T08:18:34;19.50;99.90
20744;DHT22;56303;52.160;-0.428;2023-07-13T08:21:08;19.30;99.90
20744;DHT22;56303;52.160;-0.428;2023-07-13T08:23:35;19.50;99.90
20744;DHT22;56303;52.160;-0.428;2023-07-13T08:26:03;19.30;99.90
20744;DHT22;56303;52.160;-0.428;2023-07-13T08:28:31;19.50;99.90
20744;DHT22;56303;52.160;-0.428;2023-07-13T08:31:04;19.40;99.90
20744;DHT22;56303;52.160;-0.428;2023-07-13T08:33:31;19.50;99.90
20744;DHT22;56303;52.160;-0.428;2023-07-13T08:35:58;19.50;99.90
20744;DHT22;56303;52.160;-0.428;2023-07-13T08:38:25;19.30;99.90
20744;DHT22;56303;52.160;-0.428;2023-07-13T08:40:53;19.70;99.90
20744;DHT22;56303;52.160;-0.428;2023-07-13T08:43:35;19.70;99.90
20744;DHT22;56303;52.160;-0.428;2023-07-13T08:46:12;19.80;99.90
20744;DHT22;56303;52.160;-0.428;2023-07-13T08:48:50;19.50;99.90
20744;DHT22;56303;52.160;-0.428;2023-07-13T08:51:24;19.80;99.90
20744;DHT22;56303;52.160;-0.428;2023-07-13T08:54:01;20.30;99.90
20744;DHT22;56303;52.160;-0.428;2023-07-13T08:56:30;20.30;99.90
20744;DHT22;56303;52.160;-0.428;2023-07-13T08:59:11;20.50;99.90
20744;DHT22;56303;52.160;-0.428;2023-07-13T09:01:50;20.70;99.90
20744;DHT22;56303;52.160;-0.428;2023-07-13T09:04:27;20.70;99.90
20744;DHT22;56303;52.160;-0.428;2023-07-13T09:07:05;20.80;99.90
20744;DHT22;56303;52.160;-0.428;2023-07-13T09:14:53;21.10;99.90
20744;DHT22;56303;52.160;-0.428;2023-07-13T09:17:41;21.30;99.90
20744;DHT22;56303;52.160;-0.428;2023-07-13T09:20:25;21.40;99.90
20744;DHT22;56303;52.160;-0.428;2023-07-13T09:22:53;21.30;99.90
20744;DHT22;56303;52.160;-0.428;2023-07-13T09:25:35;21.00;99.90
20744;DHT22;56303;52.160;-0.428;2023-07-13T09:28:18;21.20;99.90
20744;DHT22;56303;52.160;-0.428;2023-07-13T09:31:03;21.10;99.90
20744;DHT22;56303;52.160;-0.428;2023-07-13T09:33:31;21.30;99.90
20744;DHT22;56303;52.160;-0.428;2023-07-13T09:35:58;20.90;99.90
20744;DHT22;56303;52.160;-0.428;2023-07-13T09:38:28;21.10;99.90
20744;DHT22;56303;52.160;-0.428;2023-07-13T09:41:01;21.20;99.90
20744;DHT22;56303;52.160;-0.428;2023-07-13T09:43:29;21.50;99.90
20744;DHT22;56303;52.160;-0.428;2023-07-13T09:45:56;21.60;99.90
20744;DHT22;56303;52.160;-0.428;2023-07-13T09:48:23;21.40;99.90
20744;DHT22;56303;52.160;-0.428;2023-07-13T09:50:55;21.40;99.90
20744;DHT22;56303;52.160;-0.428;2023-07-13T09:53:23;21.40;99.90
20744;DHT22;56303;52.160;-0.428;2023-07-13T09:55:50;21.40;99.90
20744;DHT22;56303;52.160;-0.428;2023-07-13T09:58:23;20.90;99.90
20744;DHT22;56303;52.160;-0.428;2023-07-13T10:01:02;21.20;99.90
20744;DHT22;56303;52.160;-0.428;2023-07-13T10:03:35;21.40;99.90
20744;DHT22;56303;52.160;-0.428;2023-07-13T10:06:14;21.70;99.90
20744;DHT22;56303;52.160;-0.428;2023-07-13T10:08:41;21.70;99.90
20744;DHT22;56303;52.160;-0.428;2023-07-13T10:11:11;21.60;99.90
20744;DHT22;56303;52.160;-0.428;2023-07-13T10:16:28;21.70;99.90
20744;DHT22;56303;52.160;-0.428;2023-07-13T10:21:52;22.20;99.90
20744;DHT22;56303;52.160;-0.428;2023-07-13T10:27:15;22.10;99.90
20744;DHT22;56303;52.160;-0.428;2023-07-13T10:29:48;22.20;99.90
20744;DHT22;56303;52.160;-0.428;2023-07-13T10:32:19;22.50;99.90
20744;DHT22;56303;52.160;-0.428;2023-07-13T10:34:48;22.40;99.90
20744;DHT22;56303;52.160;-0.428;2023-07-13T10:37:22;22.20;99.90
20744;DHT22;56303;52.160;-0.428;2023-07-13T10:39:54;22.00;99.90
20744;DHT22;56303;52.160;-0.428;2023-07-13T10:42:32;21.80;99.90
20744;DHT22;56303;52.160;-0.428;2023-07-13T10:44:59;21.20;99.90
20744;DHT22;56303;52.160;-0.428;2023-07-13T10:47:26;21.10;99.90
20744;DHT22;56303;52.160;-0.428;2023-07-13T10:49:56;21.10;99.90
20744;DHT22;56303;52.160;-0.428;2023-07-13T10:52:50;20.60;99.90
20744;DHT22;56303;52.160;-0.428;2023-07-13T11:03:27;18.50;99.90
20744;DHT22;56303;52.160;-0.428;2023-07-13T11:06:17;18.60;99.90
20744;DHT22;56303;52.160;-0.428;2023-07-13T11:09:34;18.70;99.90
20744;DHT22;56303;52.160;-0.428;2023-07-13T11:14:39;18.70;99.90
20744;DHT22;56303;52.160;-0.428;2023-07-13T11:25:47;20.30;99.90
20744;DHT22;56303;52.160;-0.428;2023-07-13T11:28:20;20.80;99.90
20744;DHT22;56303;52.160;-0.428;2023-07-13T11:35:59;22.00;99.90
20744;DHT22;56303;52.160;-0.428;2023-07-13T11:38:36;22.60;99.90
20744;DHT22;56303;52.160;-0.428;2023-07-13T11:41:19;23.00;99.90
20744;DHT22;56303;52.160;-0.428;2023-07-13T11:43:55;23.10;99.90
20744;DHT22;56303;52.160;-0.428;2023-07-13T11:46:27;23.10;99.90
20744;DHT22;56303;52.160;-0.428;2023-07-13T11:48:54;23.60;99.90
20744;DHT22;56303;52.160;-0.428;2023-07-13T11:51:26;23.70;99.90
20744;DHT22;56303;52.160;-0.428;2023-07-13T11:53:55;23.60;99.90
20744;DHT22;56303;52.160;-0.428;2023-07-13T11:56:24;23.40;99.90
20744;DHT22;56303;52.160;-0.428;2023-07-13T11:58:55;23.40;99.90
20744;DHT22;56303;52.160;-0.428;2023-07-13T12:01:28;23.40;99.90
20744;DHT22;56303;52.160;-0.428;2023-07-13T12:04:01;23.30;99.90
20744;DHT22;56303;52.160;-0.428;2023-07-13T12:06:35;22.50;99.90
20744;DHT22;56303;52.160;-0.428;2023-07-13T12:09:13;22.20;99.90
20744;DHT22;56303;52.160;-0.428;2023-07-13T12:11:41;21.90;99.90
20744;DHT22;56303;52.160;-0.428;2023-07-13T12:14:15;22.30;99.90
20744;DHT22;56303;52.160;-0.428;2023-07-13T12:16:43;22.30;99.90
20744;DHT22;56303;52.160;-0.428;2023-07-13T12:19:21;22.60;99.90
20744;DHT22;56303;52.160;-0.428;2023-07-13T12:21:48;23.00;99.90
20744;DHT22;56303;52.160;-0.428;2023-07-13T12:24:17;23.30;99.90
20744;DHT22;56303;52.160;-0.428;2023-07-13T12:26:51;22.90;99.90
20744;DHT22;56303;52.160;-0.428;2023-07-13T12:29:18;22.80;99.90
20744;DHT22;56303;52.160;-0.428;2023-07-13T12:31:48;22.80;99.90
20744;DHT22;56303;52.160;-0.428;2023-07-13T12:34:23;23.10;99.90
20744;DHT22;56303;52.160;-0.428;2023-07-13T12:36:56;23.00;99.90
20744;DHT22;56303;52.160;-0.428;2023-07-13T12:44:41;23.00;99.90
20744;DHT22;56303;52.160;-0.428;2023-07-13T12:47:13;23.30;99.90
20744;DHT22;56303;52.160;-0.428;2023-07-13T12:49:43;22.90;99.90
20744;DHT22;56303;52.160;-0.428;2023-07-13T12:52:15;22.70;99.90
20744;DHT22;56303;52.160;-0.428;2023-07-13T12:54:55;22.40;99.90
20744;DHT22;56303;52.160;-0.428;2023-07-13T12:57:38;22.80;99.90
20744;DHT22;56303;52.160;-0.428;2023-07-13T13:00:24;23.10;99.90
20744;DHT22;56303;52.160;-0.428;2023-07-13T13:02:54;23.40;99.90
20744;DHT22;56303;52.160;-0.428;2023-07-13T13:05:41;23.90;99.90
20744;DHT22;56303;52.160;-0.428;2023-07-13T13:08:11;24.50;99.90
20744;DHT22;56303;52.160;-0.428;2023-07-13T13:10:38;24.40;99.90
20744;DHT22;56303;52.160;-0.428;2023-07-13T13:13:05;24.60;99.90
20744;DHT22;56303;52.160;-0.428;2023-07-13T13:15:32;24.90;99.90
20744;DHT22;56303;52.160;-0.428;2023-07-13T13:17:59;24.60;99.90
20744;DHT22;56303;52.160;-0.428;2023-07-13T13:20:26;24.50;99.90
20744;DHT22;56303;52.160;-0.428;2023-07-13T13:22:54;24.30;99.90
20744;DHT22;56303;52.160;-0.428;2023-07-13T13:25:22;24.40;99.90
20744;DHT22;56303;52.160;-0.428;2023-07-13T13:27:49;25.00;99.90
20744;DHT22;56303;52.160;-0.428;2023-07-13T13:30:17;24.90;99.90
20744;DHT22;56303;52.160;-0.428;2023-07-13T13:32:46;25.30;99.90
20744;DHT22;56303;52.160;-0.428;2023-07-13T13:35:19;25.20;99.90
20744;DHT22;56303;52.160;-0.428;2023-07-13T13:37:47;25.80;99.90
20744;DHT22;56303;52.160;-0.428;2023-07-13T13:40:20;26.00;99.90
20744;DHT22;56303;52.160;-0.428;2023-07-13T13:42:47;24.90;99.90
20744;DHT22;56303;52.160;-0.428;2023-07-13T13:45:14;25.10;99.90
20744;DHT22;56303;52.160;-0.428;2023-07-13T13:47:44;25.60;99.90
20744;DHT22;56303;52.160;-0.428;2023-07-13T13:52:42;25.90;99.90
20744;DHT22;56303;52.160;-0.428;2023-07-13T13:55:18;26.00;99.90
20744;DHT22;56303;52.160;-0.428;2023-07-13T13:57:49;25.70;99.90
20744;DHT22;56303;52.160;-0.428;2023-07-13T14:00:17;25.70;99.90
20744;DHT22;56303;52.160;-0.428;2023-07-13T14:02:48;26.10;99.90
20744;DHT22;56303;52.160;-0.428;2023-07-13T14:05:24;26.10;99.90
20744;DHT22;56303;52.160;-0.428;2023-07-13T14:07:54;26.00;99.90
20744;DHT22;56303;52.160;-0.428;2023-07-13T14:10:23;25.80;99.90
20744;DHT22;56303;52.160;-0.428;2023-07-13T14:12:54;25.30;99.90
20744;DHT22;56303;52.160;-0.428;2023-07-13T14:15:23;25.40;99.90
20744;DHT22;56303;52.160;-0.428;2023-07-13T14:17:51;26.00;99.90
20744;DHT22;56303;52.160;-0.428;2023-07-13T14:20:20;26.00;99.90
20744;DHT22;56303;52.160;-0.428;2023-07-13T14:22:47;26.10;99.90
20744;DHT22;56303;52.160;-0.428;2023-07-13T14:25:16;25.30;99.90
20744;DHT22;56303;52.160;-0.428;2023-07-13T14:27:44;24.20;99.90
20744;DHT22;56303;52.160;-0.428;2023-07-13T14:30:18;22.50;99.90
20744;DHT22;56303;52.160;-0.428;2023-07-13T14:32:45;22.50;99.90
20744;DHT22;56303;52.160;-0.428;2023-07-13T14:35:14;22.10;99.90
20744;DHT22;56303;52.160;-0.428;2023-07-13T14:37:42;21.50;99.90
20744;DHT22;56303;52.160;-0.428;2023-07-13T14:40:18;21.80;99.90
20744;DHT22;56303;52.160;-0.428;2023-07-13T14:42:46;22.00;99.90
20744;DHT22;56303;52.160;-0.428;2023-07-13T14:45:15;21.90;99.90
20744;DHT22;56303;52.160;-0.428;2023-07-13T14:47:43;21.90;99.90
20744;DHT22;56303;52.160;-0.428;2023-07-13T14:50:16;21.60;99.90
20744;DHT22;56303;52.160;-0.428;2023-07-13T14:52:44;21.60;99.90
20744;DHT22;56303;52.160;-0.428;2023-07-13T14:55:14;20.80;99.90
20744;DHT22;56303;52.160;-0.428;2023-07-13T14:57:41;21.10;99.90
20744;DHT22;56303;52.160;-0.428;2023-07-13T15:00:16;21.30;99.90
20744;DHT22;56303;52.160;-0.428;2023-07-13T15:02:55;21.40;99.90
20744;DHT22;56303;52.160;-0.428;2023-07-13T15:05:27;21.30;99.90
20744;DHT22;56303;52.160;-0.428;2023-07-13T15:07:59;21.50;99.90
20744;DHT22;56303;52.160;-0.428;2023-07-13T15:10:29;21.40;99.90
20744;DHT22;56303;52.160;-0.428;2023-07-13T15:13:16;20.90;99.90
20744;DHT22;56303;52.160;-0.428;2023-07-13T15:15:55;20.60;99.90
20744;DHT22;56303;52.160;-0.428;2023-07-13T15:18:23;20.70;99.90
20744;DHT22;56303;52.160;-0.428;2023-07-13T15:20:51;21.00;99.90
20744;DHT22;56303;52.160;-0.428;2023-07-13T15:23:22;21.40;99.90
20744;DHT22;56303;52.160;-0.428;2023-07-13T15:25:49;21.90;99.90
20744;DHT22;56303;52.160;-0.428;2023-07-13T15:28:16;21.80;99.90
20744;DHT22;56303;52.160;-0.428;2023-07-13T15:30:45;22.40;99.90
20744;DHT22;56303;52.160;-0.428;2023-07-13T15:35:50;21.90;99.90
20744;DHT22;56303;52.160;-0.428;2023-07-13T15:38:21;22.00;99.90
20744;DHT22;56303;52.160;-0.428;2023-07-13T15:40:49;22.50;99.90
20744;DHT22;56303;52.160;-0.428;2023-07-13T15:43:20;22.60;99.90
20744;DHT22;56303;52.160;-0.428;2023-07-13T15:45:47;22.70;99.90
20744;DHT22;56303;52.160;-0.428;2023-07-13T15:48:20;22.90;99.90
20744;DHT22;56303;52.160;-0.428;2023-07-13T15:50:54;22.50;99.90
20744;DHT22;56303;52.160;-0.428;2023-07-13T15:53:32;23.10;99.90
20744;DHT22;56303;52.160;-0.428;2023-07-13T15:56:02;23.60;99.90
20744;DHT22;56303;52.160;-0.428;2023-07-13T15:58:30;23.60;99.90
20744;DHT22;56303;52.160;-0.428;2023-07-13T16:00:57;23.90;99.90
20744;DHT22;56303;52.160;-0.428;2023-07-13T16:03:25;24.20;99.90
20744;DHT22;56303;52.160;-0.428;2023-07-13T16:05:53;24.30;99.90
20744;DHT22;56303;52.160;-0.428;2023-07-13T16:08:31;24.20;99.90
20744;DHT22;56303;52.160;-0.428;2023-07-13T16:11:00;24.10;99.90
20744;DHT22;56303;52.160;-0.428;2023-07-13T16:13:27;24.10;99.90
20744;DHT22;56303;52.160;-0.428;2023-07-13T16:15:54;23.90;99.90
20744;DHT22;56303;52.160;-0.428;2023-07-13T16:18:23;24.10;99.90
20744;DHT22;56303;52.160;-0.428;2023-07-13T16:20:53;24.10;99.90